createdAt,value
2023-05-03T00:01:16.666Z,2.67
2023-05-03T00:03:45.917Z,4.40
2023-05-03T00:06:14.918Z,1.58
2023-05-03T00:08:43.072Z,1.92
2023-05-03T00:11:10.816Z,1.20
2023-05-03T00:13:37.966Z,1.98
2023-05-03T00:16:05.766Z,2.13
2023-05-03T00:18:33.459Z,3.80
2023-05-03T00:21:00.574Z,2.17
2023-05-03T00:23:28.584Z,3.58
2023-05-03T00:25:57.909Z,2.28
2023-05-03T00:28:26.501Z,5.47
2023-05-03T00:30:54.008Z,2.05
2023-05-03T00:33:21.946Z,4.45
2023-05-03T00:35:49.654Z,2.13
2023-05-03T00:38:16.894Z,2.05
2023-05-03T00:40:44.172Z,1.10
2023-05-03T00:43:13.458Z,3.35
2023-05-03T00:45:41.158Z,3.17
2023-05-03T00:48:09.006Z,3.78
2023-05-03T00:50:37.568Z,4.13
2023-05-03T00:53:05.108Z,2.67
2023-05-03T00:55:33.758Z,2.28
2023-05-03T00:58:01.302Z,4.53
2023-05-03T01:00:28.747Z,2.45
2023-05-03T01:02:56.232Z,2.78
2023-05-03T01:05:24.659Z,3.42
2023-05-03T01:08:18.628Z,3.40
2023-05-03T01:10:59.292Z,3.10
2023-05-03T01:13:43.079Z,2.17
2023-05-03T01:16:30.549Z,2.53
2023-05-03T01:19:02.185Z,3.83
2023-05-03T01:21:31.353Z,2.10
2023-05-03T01:24:14.188Z,2.22
2023-05-03T01:26:41.847Z,3.03
2023-05-03T01:29:09.259Z,3.42
2023-05-03T01:31:56.166Z,3.13
2023-05-03T01:34:33.779Z,3.33
2023-05-03T01:37:04.987Z,2.45
2023-05-03T01:39:42.975Z,1.90
2023-05-03T01:42:10.378Z,1.98
2023-05-03T01:44:40.106Z,1.80
2023-05-03T01:47:07.907Z,3.08
2023-05-03T01:49:35.451Z,2.85
2023-05-03T01:52:02.644Z,2.42
2023-05-03T01:54:30.452Z,2.45
2023-05-03T01:56:58.267Z,5.50
2023-05-03T01:59:26.031Z,2.85
2023-05-03T02:01:54.138Z,2.78
2023-05-03T02:04:21.483Z,2.05
2023-05-03T02:06:48.594Z,2.28
2023-05-03T02:09:15.821Z,2.15
2023-05-03T02:11:44.080Z,3.70
2023-05-03T02:14:12.276Z,2.03
2023-05-03T02:16:40.526Z,2.17
2023-05-03T02:19:08.898Z,2.90
2023-05-03T02:21:38.608Z,3.92
2023-05-03T02:24:06.205Z,3.83
2023-05-03T02:26:33.990Z,4.15
2023-05-03T02:29:01.980Z,1.75
2023-05-03T02:31:31.926Z,2.10
2023-05-03T02:33:59.770Z,3.90
2023-05-03T02:36:27.894Z,1.90
2023-05-03T02:38:55.467Z,2.15
2023-05-03T02:41:22.995Z,2.88
2023-05-03T02:43:51.129Z,3.05
2023-05-03T02:46:18.968Z,2.42
2023-05-03T02:48:46.567Z,4.35
2023-05-03T02:51:14.157Z,5.35
2023-05-03T02:53:41.436Z,2.10
2023-05-03T02:56:10.127Z,5.45
2023-05-03T02:58:37.416Z,4.82
2023-05-03T03:01:05.750Z,3.10
2023-05-03T03:03:33.089Z,2.20
2023-05-03T03:06:00.841Z,3.60
2023-05-03T03:08:28.558Z,3.00
2023-05-03T03:11:00.171Z,2.53
2023-05-03T03:13:27.950Z,3.03
2023-05-03T03:15:55.681Z,2.67
2023-05-03T03:18:22.925Z,1.80
2023-05-03T03:20:50.518Z,3.28
2023-05-03T03:23:19.893Z,5.47
2023-05-03T03:25:47.489Z,3.85
2023-05-03T03:28:16.598Z,4.88
2023-05-03T03:30:44.911Z,3.25
2023-05-03T03:33:24.326Z,3.28
2023-05-03T03:35:54.480Z,2.17
2023-05-03T03:38:26.611Z,2.35
2023-05-03T03:41:00.131Z,5.47
2023-05-03T03:43:27.843Z,3.28
2023-05-03T03:45:55.183Z,1.67
2023-05-03T03:48:23.173Z,4.35
2023-05-03T03:50:51.005Z,2.83
2023-05-03T03:53:20.729Z,1.60
2023-05-03T03:55:48.710Z,3.17
2023-05-03T03:58:18.156Z,3.45
2023-05-03T04:00:45.777Z,3.78
2023-05-03T04:03:17.599Z,3.08
2023-05-03T04:05:45.362Z,2.72
2023-05-03T04:08:12.772Z,2.90
2023-05-03T04:10:40.976Z,2.55
2023-05-03T04:13:09.208Z,2.47
2023-05-03T04:15:36.480Z,2.65
2023-05-03T04:18:05.948Z,1.80
2023-05-03T04:20:37.001Z,3.03
2023-05-03T04:23:06.294Z,3.85
2023-05-03T04:25:33.860Z,2.83
2023-05-03T04:28:10.495Z,4.18
2023-05-03T04:30:43.722Z,4.13
2023-05-03T04:33:11.670Z,2.60
2023-05-03T04:35:39.247Z,1.98
2023-05-03T04:38:10.087Z,2.40
2023-05-03T04:40:37.924Z,2.08
2023-05-03T04:43:08.700Z,1.35
2023-05-03T04:45:39.890Z,1.73
2023-05-03T04:48:10.485Z,3.28
2023-05-03T04:50:37.786Z,2.63
2023-05-03T04:53:08.206Z,2.15
2023-05-03T04:55:39.716Z,1.67
2023-05-03T04:58:07.674Z,2.35
2023-05-03T05:00:37.007Z,3.30
2023-05-03T05:03:10.273Z,1.50
2023-05-03T05:05:38.029Z,3.45
2023-05-03T05:08:06.235Z,3.15
2023-05-03T05:10:43.118Z,4.78
2023-05-03T05:13:14.932Z,1.98
2023-05-03T05:15:42.460Z,3.15
2023-05-03T05:18:12.183Z,2.33
2023-05-03T05:20:40.748Z,1.98
2023-05-03T05:23:09.073Z,2.63
2023-05-03T05:25:37.261Z,2.00
2023-05-03T05:28:05.236Z,1.20
2023-05-03T05:30:33.920Z,2.20
2023-05-03T05:33:02.441Z,4.82
2023-05-03T05:35:30.002Z,1.48
2023-05-03T05:37:57.800Z,2.15
2023-05-03T05:40:26.517Z,1.15
2023-05-03T05:42:56.588Z,1.88
2023-05-03T05:45:26.230Z,3.17
2023-05-03T05:47:54.685Z,1.70
2023-05-03T05:50:22.621Z,2.85
2023-05-03T05:52:56.342Z,2.70
2023-05-03T05:55:27.103Z,1.15
2023-05-03T05:57:56.284Z,2.30
2023-05-03T06:00:28.413Z,1.33
2023-05-03T06:02:56.109Z,1.30
2023-05-03T06:05:23.746Z,0.57
2023-05-03T06:07:51.271Z,1.42
2023-05-03T06:10:18.772Z,1.75
2023-05-03T06:12:51.334Z,2.83
2023-05-03T06:15:23.196Z,3.92
2023-05-03T06:17:50.588Z,1.95
2023-05-03T06:20:18.721Z,1.00
2023-05-03T06:22:47.881Z,1.85
2023-05-03T06:25:17.840Z,2.85
2023-05-03T06:27:50.361Z,4.15
2023-05-03T06:30:20.988Z,2.15
2023-05-03T06:32:50.030Z,2.95
2023-05-03T06:35:20.011Z,3.42
2023-05-03T06:37:48.285Z,2.17
2023-05-03T06:40:16.293Z,1.90
2023-05-03T06:42:44.075Z,1.85
2023-05-03T06:45:31.593Z,2.17
2023-05-03T06:47:59.537Z,1.52
2023-05-03T06:50:27.513Z,1.85
2023-05-03T06:52:55.222Z,2.28
2023-05-03T06:55:22.805Z,2.28
2023-05-03T06:57:52.591Z,1.52
2023-05-03T07:00:22.052Z,0.80
2023-05-03T07:02:49.917Z,1.73
2023-05-03T07:05:17.702Z,0.95
2023-05-03T07:07:45.168Z,5.03
2023-05-03T07:10:12.536Z,1.20
2023-05-03T07:12:39.684Z,1.30
2023-05-03T07:15:07.614Z,1.88
2023-05-03T07:17:35.052Z,0.70
2023-05-03T07:20:02.868Z,9.20
2023-05-03T07:22:30.310Z,2.28
2023-05-03T07:25:00.089Z,3.20
2023-05-03T07:27:27.800Z,2.28
2023-05-03T07:29:55.236Z,1.75
2023-05-03T07:32:22.917Z,2.03
2023-05-03T07:34:50.597Z,2.35
2023-05-03T07:37:18.035Z,4.68
2023-05-03T07:39:45.962Z,2.63
2023-05-03T07:42:13.443Z,3.75
2023-05-03T07:44:41.540Z,1.65
2023-05-03T07:47:08.980Z,5.78
2023-05-03T07:49:38.559Z,1.55
2023-05-03T07:52:06.489Z,1.35
2023-05-03T07:54:34.417Z,1.80
2023-05-03T07:57:04.234Z,3.30
2023-05-03T07:59:31.674Z,3.30
2023-05-03T08:02:01.338Z,2.45
2023-05-03T08:04:29.208Z,4.07
2023-05-03T08:06:57.033Z,1.90
2023-05-03T08:09:25.277Z,2.70
2023-05-03T08:11:52.599Z,1.52
2023-05-03T08:14:20.265Z,2.15
2023-05-03T08:16:48.100Z,1.92
2023-05-03T08:19:16.221Z,3.33
2023-05-03T08:21:43.698Z,3.75
2023-05-03T08:24:12.534Z,2.90
2023-05-03T08:26:42.130Z,2.83
2023-05-03T08:29:10.087Z,1.15
2023-05-03T08:31:37.755Z,3.90
2023-05-03T08:34:07.056Z,2.40
2023-05-03T08:36:36.189Z,1.33
2023-05-03T08:39:07.073Z,2.00
2023-05-03T08:41:35.014Z,1.58
2023-05-03T08:44:05.876Z,1.92
2023-05-03T08:46:37.376Z,1.90
2023-05-03T08:49:07.458Z,2.20
2023-05-03T08:51:36.270Z,2.38
2023-05-03T08:54:03.936Z,2.03
2023-05-03T08:56:44.198Z,4.00
2023-05-03T08:59:12.055Z,1.13
2023-05-03T09:01:41.542Z,4.13
2023-05-03T09:04:11.578Z,2.30
2023-05-03T09:06:39.640Z,2.10
2023-05-03T09:09:09.075Z,3.75
2023-05-03T09:11:39.352Z,4.85
2023-05-03T09:14:19.427Z,3.45
2023-05-03T09:16:47.715Z,2.28
2023-05-03T09:19:16.644Z,3.03
2023-05-03T09:21:47.403Z,4.93
2023-05-03T09:24:21.684Z,1.35
2023-05-03T09:26:51.387Z,2.47
2023-05-03T09:29:34.412Z,3.20
2023-05-03T09:32:05.986Z,2.20
2023-05-03T09:34:35.896Z,2.58
2023-05-03T09:37:03.636Z,1.55
2023-05-03T09:39:31.762Z,2.20
2023-05-03T09:41:59.465Z,1.80
2023-05-03T09:44:42.572Z,2.97
2023-05-03T09:47:11.017Z,2.30
2023-05-03T09:49:39.796Z,3.22
2023-05-03T09:52:09.160Z,2.33
2023-05-03T09:54:37.004Z,1.50
2023-05-03T09:57:06.585Z,3.20
2023-05-03T09:59:35.518Z,1.73
2023-05-03T10:02:06.403Z,2.85
2023-05-03T10:04:45.078Z,1.88
2023-05-03T10:07:17.890Z,1.85
2023-05-03T10:09:48.304Z,1.88
2023-05-03T10:12:21.669Z,3.45
2023-05-03T10:14:57.853Z,4.00
2023-05-03T10:17:46.185Z,4.60
2023-05-03T10:20:42.939Z,1.50
2023-05-03T10:23:14.779Z,2.63
2023-05-03T10:26:11.102Z,3.38
2023-05-03T10:28:39.589Z,2.67
2023-05-03T10:31:27.506Z,4.05
2023-05-03T10:33:55.977Z,2.70
2023-05-03T10:36:26.022Z,2.70
2023-05-03T10:38:57.801Z,2.00
2023-05-03T10:41:27.308Z,2.58
2023-05-03T10:43:55.159Z,2.97
2023-05-03T10:46:34.148Z,3.28
2023-05-03T10:49:26.851Z,4.30
2023-05-03T10:51:56.634Z,2.92
2023-05-03T10:54:25.233Z,1.90
2023-05-03T10:56:55.353Z,4.15
2023-05-03T10:59:24.746Z,3.50
2023-05-03T11:01:53.493Z,1.80
2023-05-03T11:04:35.148Z,2.65
2023-05-03T11:07:03.112Z,2.58
2023-05-03T11:09:32.615Z,6.63
2023-05-03T11:12:04.748Z,2.00
2023-05-03T11:16:59.957Z,4.68
2023-05-03T11:19:27.979Z,2.88
2023-05-03T11:21:55.901Z,1.65
2023-05-03T11:24:23.719Z,2.28
2023-05-03T11:26:51.746Z,1.90
2023-05-03T11:29:21.370Z,2.45
2023-05-03T11:31:48.947Z,5.72
2023-05-03T11:34:16.604Z,5.43
2023-05-03T11:36:44.689Z,3.33
2023-05-03T11:39:15.043Z,2.97
2023-05-03T11:41:42.790Z,4.80
2023-05-03T11:44:17.084Z,4.30
2023-05-03T11:46:47.125Z,2.03
2023-05-03T11:49:19.533Z,1.38
2023-05-03T11:51:51.660Z,2.53
2023-05-03T11:54:26.375Z,2.65
2023-05-03T11:56:59.987Z,2.65
2023-05-03T11:59:41.492Z,2.08
2023-05-03T12:02:14.965Z,3.95
2023-05-03T12:04:48.205Z,3.13
2023-05-03T12:07:19.414Z,2.97
2023-05-03T12:10:00.734Z,3.70
2023-05-03T12:12:40.891Z,3.60
2023-05-03T12:15:11.624Z,4.47
2023-05-03T12:17:44.388Z,3.65
2023-05-03T12:22:57.247Z,3.85
2023-05-03T12:25:29.146Z,2.38
2023-05-03T12:28:18.694Z,3.13
2023-05-03T12:30:47.935Z,3.63
2023-05-03T12:33:21.823Z,3.03
2023-05-03T12:35:52.739Z,4.10
2023-05-03T12:38:23.887Z,3.63
2023-05-03T12:40:53.961Z,3.70
2023-05-03T12:43:22.145Z,3.00
2023-05-03T12:46:00.697Z,3.22
2023-05-03T12:48:38.204Z,3.60
2023-05-03T12:53:38.854Z,3.33
2023-05-03T12:56:07.610Z,1.92
2023-05-03T13:03:44.301Z,3.17
2023-05-03T13:06:14.442Z,2.47
2023-05-03T13:11:13.391Z,2.72
2023-05-03T13:13:41.482Z,4.18
2023-05-03T13:16:09.650Z,2.13
2023-05-03T13:18:37.449Z,6.10
2023-05-03T13:21:05.569Z,6.40
2023-05-03T13:23:34.173Z,3.25
2023-05-03T13:26:01.855Z,3.22
2023-05-03T13:28:29.194Z,6.22
2023-05-03T13:30:57.553Z,3.67
2023-05-03T13:33:26.224Z,3.97
2023-05-03T13:35:54.909Z,2.85
2023-05-03T13:38:22.658Z,3.75
2023-05-03T13:40:50.730Z,4.60
2023-05-03T13:43:17.872Z,3.72
2023-05-03T13:45:45.517Z,3.13
2023-05-03T13:48:18.507Z,2.78
2023-05-03T13:50:47.202Z,4.60
2023-05-03T13:53:15.308Z,4.47
2023-05-03T13:55:42.531Z,4.55
2023-05-03T13:58:11.481Z,5.65
2023-05-03T14:00:39.071Z,3.40
2023-05-03T14:03:07.949Z,5.65
2023-05-03T14:05:36.130Z,3.50
2023-05-03T14:08:03.534Z,3.90
2023-05-03T14:10:35.973Z,6.88
2023-05-03T14:13:04.075Z,4.53
2023-05-03T14:15:32.167Z,2.47
2023-05-03T14:18:03.027Z,2.47
2023-05-03T14:20:34.316Z,5.10
2023-05-03T14:23:02.600Z,3.03
2023-05-03T14:25:31.561Z,2.33
2023-05-03T14:28:01.654Z,1.85
2023-05-03T14:30:29.584Z,4.97
2023-05-03T14:32:57.078Z,3.75
2023-05-03T14:35:25.154Z,4.88
2023-05-03T14:37:52.956Z,3.65
2023-05-03T14:40:21.057Z,4.55
2023-05-03T14:42:49.125Z,4.88
2023-05-03T14:45:17.556Z,5.45
2023-05-03T14:47:45.345Z,3.05
2023-05-03T14:50:13.264Z,2.97
2023-05-03T14:52:41.139Z,4.53
2023-05-03T14:55:09.424Z,4.13
2023-05-03T14:57:38.617Z,3.08
2023-05-03T15:00:14.494Z,2.00
2023-05-03T15:02:43.324Z,2.85
2023-05-03T15:05:14.180Z,3.70
2023-05-03T15:07:41.787Z,3.65
2023-05-03T15:10:10.231Z,4.70
2023-05-03T15:12:39.337Z,3.88
2023-05-03T15:15:10.096Z,4.15
2023-05-03T15:17:37.957Z,5.50
2023-05-03T15:20:07.915Z,3.25
2023-05-03T15:22:36.876Z,3.75
2023-05-03T15:25:04.849Z,6.13
2023-05-03T15:27:32.753Z,5.85
2023-05-03T15:30:00.634Z,3.83
2023-05-03T15:32:28.547Z,4.65
2023-05-03T15:34:56.401Z,3.88
2023-05-03T15:37:24.369Z,3.20
2023-05-03T15:39:51.660Z,3.55
2023-05-03T15:42:19.621Z,9.60
2023-05-03T15:44:49.820Z,5.22
2023-05-03T15:47:17.563Z,5.15
2023-05-03T15:49:45.469Z,3.45
2023-05-03T15:52:13.433Z,4.90
2023-05-03T15:54:41.810Z,5.45
2023-05-03T15:57:09.654Z,3.70
2023-05-03T15:59:38.488Z,5.15
2023-05-03T16:02:14.893Z,3.03
2023-05-03T16:04:43.284Z,5.10
2023-05-03T16:07:12.258Z,6.65
2023-05-03T16:09:39.704Z,6.18
2023-05-03T16:12:08.818Z,3.55
2023-05-03T16:14:36.635Z,6.10
2023-05-03T16:17:04.323Z,3.67
2023-05-03T16:19:32.276Z,6.63
2023-05-03T16:22:00.383Z,3.88
2023-05-03T16:24:29.166Z,7.68
2023-05-03T16:26:57.050Z,4.60
2023-05-03T16:29:26.360Z,4.43
2023-05-03T16:31:53.915Z,3.65
2023-05-03T16:34:21.761Z,6.53
2023-05-03T16:36:49.363Z,8.20
2023-05-03T16:39:17.171Z,14.52
2023-05-03T16:41:49.179Z,17.35
2023-05-03T16:44:19.265Z,14.00
2023-05-03T16:46:48.240Z,15.75
2023-05-03T16:49:15.663Z,6.60
2023-05-03T16:51:43.639Z,7.57
2023-05-03T16:54:12.875Z,12.65
2023-05-03T16:56:40.242Z,9.02
2023-05-03T16:59:08.110Z,8.73
2023-05-03T17:01:35.771Z,10.50
2023-05-03T17:04:04.885Z,10.75
2023-05-03T17:06:33.897Z,20.23
2023-05-03T17:09:02.044Z,12.73
2023-05-03T17:11:30.268Z,9.65
2023-05-03T17:14:01.535Z,10.18
2023-05-03T17:16:29.077Z,10.38
2023-05-03T17:18:58.182Z,17.42
2023-05-03T17:21:25.696Z,16.48
2023-05-03T17:23:53.348Z,8.45
2023-05-03T17:26:22.580Z,10.43
2023-05-03T17:28:50.345Z,15.82
2023-05-03T17:31:17.753Z,5.53
2023-05-03T17:33:45.225Z,8.40
2023-05-03T17:36:12.964Z,7.57
2023-05-03T17:38:40.554Z,5.75
2023-05-03T17:41:09.500Z,6.07
2023-05-03T17:43:38.070Z,5.30
2023-05-03T17:46:14.976Z,3.10
2023-05-03T17:48:44.460Z,4.32
2023-05-03T17:51:17.639Z,2.88
2023-05-03T17:53:45.309Z,7.70
2023-05-03T17:56:17.561Z,4.18
2023-05-03T17:58:45.937Z,4.43
2023-05-03T18:01:13.905Z,5.72
2023-05-03T18:03:42.269Z,3.63
2023-05-03T18:06:11.725Z,5.40
2023-05-03T18:08:39.325Z,4.45
2023-05-03T18:11:07.578Z,3.38
2023-05-03T18:13:35.228Z,5.72
2023-05-03T18:16:09.099Z,4.13
2023-05-03T18:18:36.693Z,5.57
2023-05-03T18:21:05.108Z,2.67
2023-05-03T18:23:33.154Z,3.85
2023-05-03T18:26:01.069Z,5.28
2023-05-03T18:28:28.717Z,4.88
2023-05-03T18:30:56.280Z,7.05
2023-05-03T18:33:23.993Z,5.00
2023-05-03T18:35:53.372Z,6.05
2023-05-03T18:38:21.924Z,5.88
2023-05-03T18:40:50.360Z,4.63
2023-05-03T18:43:18.215Z,5.50
2023-05-03T18:45:45.533Z,3.22
2023-05-03T18:48:14.714Z,4.03
2023-05-03T18:50:45.447Z,3.70
2023-05-03T18:53:13.256Z,8.00
2023-05-03T18:55:41.978Z,5.65
2023-05-03T18:58:10.779Z,2.90
2023-05-03T19:00:38.276Z,3.08
2023-05-03T19:03:06.762Z,4.28
2023-05-03T19:05:34.432Z,6.07
2023-05-03T19:08:02.143Z,3.75
2023-05-03T19:10:29.608Z,4.22
2023-05-03T19:12:57.731Z,5.57
2023-05-03T19:15:25.474Z,3.58
2023-05-03T19:17:54.692Z,4.28
2023-05-03T19:20:22.695Z,4.65
2023-05-03T19:22:50.243Z,3.72
2023-05-03T19:25:17.873Z,5.25
2023-05-03T19:27:45.422Z,3.75
2023-05-03T19:30:13.115Z,3.55
2023-05-03T19:32:41.109Z,3.70
2023-05-03T19:35:11.769Z,5.95
2023-05-03T19:37:39.285Z,3.85
2023-05-03T19:40:07.912Z,3.60
2023-05-03T19:42:35.341Z,4.07
2023-05-03T19:45:06.548Z,4.80
2023-05-03T19:47:34.096Z,3.38
2023-05-03T19:50:01.878Z,3.17
2023-05-03T19:52:29.553Z,3.15
2023-05-03T19:54:57.913Z,3.22
2023-05-03T19:57:26.008Z,3.90
2023-05-03T19:59:53.377Z,2.88
2023-05-03T20:02:24.162Z,4.43
2023-05-03T20:04:52.671Z,3.08
2023-05-03T20:07:20.136Z,3.03
2023-05-03T20:09:47.509Z,6.03
2023-05-03T20:12:14.769Z,3.40
2023-05-03T20:14:42.366Z,5.25
2023-05-03T20:17:09.841Z,3.92
2023-05-03T20:19:38.365Z,2.47
2023-05-03T20:22:05.640Z,3.25
2023-05-03T20:24:33.046Z,2.92
2023-05-03T20:27:04.218Z,4.68
2023-05-03T20:29:31.794Z,3.25
2023-05-03T20:31:59.347Z,2.70
2023-05-03T20:34:27.406Z,3.30
2023-05-03T20:36:55.039Z,2.85
2023-05-03T20:39:22.396Z,3.42
2023-05-03T20:41:49.943Z,4.00
2023-05-03T20:44:17.262Z,4.82
2023-05-03T20:46:45.694Z,5.05
2023-05-03T20:49:13.807Z,6.60
2023-05-03T20:51:41.298Z,4.55
2023-05-03T20:54:08.834Z,5.40
2023-05-03T20:56:36.178Z,4.22
2023-05-03T20:59:05.251Z,3.38
2023-05-03T21:01:32.820Z,3.63
2023-05-03T21:04:00.779Z,4.93
2023-05-03T21:06:28.400Z,4.38
2023-05-03T21:08:55.875Z,4.78
2023-05-03T21:11:23.361Z,3.47
2023-05-03T21:13:51.423Z,3.30
2023-05-03T21:16:19.134Z,4.97
2023-05-03T21:18:46.999Z,4.38
2023-05-03T21:21:15.643Z,4.10
2023-05-03T21:23:43.069Z,4.53
2023-05-03T21:26:11.047Z,4.38
2023-05-03T21:28:38.343Z,4.00
2023-05-03T21:31:05.869Z,6.13
2023-05-03T21:33:33.525Z,4.60
2023-05-03T21:36:01.151Z,4.75
2023-05-03T21:38:28.800Z,7.07
2023-05-03T21:41:08.782Z,9.07
2023-05-03T21:43:37.279Z,11.70
2023-05-03T21:46:08.788Z,11.10
2023-05-03T21:48:37.817Z,12.98
2023-05-03T21:51:05.494Z,14.73
2023-05-03T21:53:33.524Z,13.40
2023-05-03T21:56:00.870Z,9.52
2023-05-03T21:58:28.420Z,11.30
2023-05-03T22:00:55.907Z,10.13
2023-05-03T22:03:23.434Z,10.88
2023-05-03T22:05:51.912Z,7.68
2023-05-03T22:08:19.672Z,8.00
2023-05-03T22:10:47.455Z,10.82
2023-05-03T22:13:15.561Z,8.25
2023-05-03T22:15:42.941Z,10.30
2023-05-03T22:18:10.656Z,12.38
2023-05-03T22:20:37.967Z,10.02
2023-05-03T22:23:05.560Z,8.48
2023-05-03T22:25:33.346Z,5.97
2023-05-03T22:28:01.320Z,5.68
2023-05-03T22:30:29.336Z,4.63
2023-05-03T22:32:57.041Z,4.88
2023-05-03T22:35:24.649Z,5.40
2023-05-03T22:37:52.415Z,5.30
2023-05-03T22:40:20.491Z,6.13
2023-05-03T22:42:48.033Z,12.68
2023-05-03T22:45:15.938Z,11.05
2023-05-03T22:47:43.966Z,16.08
2023-05-03T22:50:11.734Z,10.23
2023-05-03T22:52:39.235Z,6.35
2023-05-03T22:55:08.304Z,8.10
2023-05-03T22:57:36.107Z,5.60
2023-05-03T23:00:07.116Z,6.72
2023-05-03T23:02:35.022Z,5.63
2023-05-03T23:05:02.881Z,5.43
2023-05-03T23:07:30.545Z,6.60
2023-05-03T23:10:03.580Z,5.55
2023-05-03T23:12:32.405Z,5.40
2023-05-03T23:14:59.922Z,7.80
2023-05-03T23:17:27.943Z,4.75
2023-05-03T23:19:55.653Z,8.38
2023-05-03T23:22:22.798Z,10.30
2023-05-03T23:24:50.307Z,6.75
2023-05-03T23:27:20.248Z,6.80
2023-05-03T23:29:48.463Z,5.78
2023-05-03T23:32:16.553Z,7.20
2023-05-03T23:34:44.457Z,6.50
2023-05-03T23:37:11.788Z,7.47
2023-05-03T23:39:44.487Z,8.15
2023-05-03T23:42:13.306Z,7.88
2023-05-03T23:44:50.823Z,5.38
2023-05-03T23:47:21.281Z,8.32
2023-05-03T23:49:48.923Z,5.65
2023-05-03T23:52:19.231Z,6.57
2023-05-03T23:54:46.862Z,5.82
2023-05-03T23:57:14.275Z,4.65
2023-05-03T23:59:42.137Z,9.70
